TimeCDT,TemperatureF,Dew PointF,Humidity,Sea Level PressureIn,VisibilityMPH,Wind Direction,Wind SpeedMPH,Gust SpeedMPH,PrecipitationIn,Events,Conditions,WindDirDegrees,DateUTC
12:55 AM,74.5,68.4,81,30.09,10.0,Calm,Calm,-,N/A,,Clear,0,2012-09-23 05:55:00
1:55 AM,74.7,68.5,81,30.09,10.0,Calm,Calm,-,N/A,,Clear,0,2012-09-23 06:55:00
2:55 AM,73.8,67.1,80,30.09,10.0,Calm,Calm,-,N/A,,Clear,0,2012-09-23 07:55:00
3:55 AM,73.4,66.4,79,30.09,10.0,Calm,Calm,-,N/A,,Clear,0,2012-09-23 08:55:00
4:55 AM,72.0,65.3,79,30.10,10.0,Calm,Calm,-,N/A,,Clear,0,2012-09-23 09:55:00
5:55 AM,71.1,64.0,78,30.12,10.0,NE,3.5,-,N/A,,Clear,40,2012-09-23 10:55:00
6:55 AM,70.2,63.9,80,30.13,10.0,NE,6.9,-,N/A,,Clear,50,2012-09-23 11:55:00
7:55 AM,72.5,62.8,71,30.14,10.0,ENE,6.9,-,N/A,,Clear,60,2012-09-23 12:55:00
8:55 AM,77.4,61.3,58,30.16,10.0,ENE,6.9,-,N/A,,Clear,70,2012-09-23 13:55:00
9:55 AM,81.3,62.6,53,30.16,10.0,ENE,5.8,-,N/A,,Clear,60,2012-09-23 14:55:00
10:55 AM,83.5,64.6,53,30.16,10.0,East,4.6,-,N/A,,Clear,90,2012-09-23 15:55:00
11:55 AM,86.5,66.2,51,30.15,10.0,Variable,4.6,-,N/A,,Clear,0,2012-09-23 16:55:00
12:55 PM,87.6,63.7,45,30.14,10.0,Calm,Calm,-,N/A,,Clear,0,2012-09-23 17:55:00
1:55 PM,86.2,67.6,54,30.14,10.0,SSW,8.1,-,N/A,,Clear,200,2012-09-23 18:55:00
2:55 PM,85.5,66.2,52,30.12,10.0,South,8.1,-,N/A,,Clear,170,2012-09-23 19:55:00
3:55 PM,85.1,66.9,54,30.11,10.0,South,8.1,-,N/A,,Clear,190,2012-09-23 20:55:00
4:55 PM,83.8,66.7,56,30.11,10.0,South,6.9,-,N/A,,Clear,180,2012-09-23 21:55:00
5:55 PM,82.4,66.2,58,30.11,10.0,SSW,5.8,-,N/A,,Clear,210,2012-09-23 22:55:00
6:55 PM,78.3,66.6,67,30.11,10.0,SSW,5.8,-,N/A,,Clear,210,2012-09-23 23:55:00
7:55 PM,77.4,67.5,71,30.13,10.0,WSW,3.5,-,N/A,,Clear,240,2012-09-24 00:55:00
8:55 PM,78.1,66.9,68,30.14,10.0,WSW,3.5,-,N/A,,Clear,240,2012-09-24 01:55:00
9:55 PM,78.3,67.1,68,30.15,10.0,Calm,Calm,-,N/A,,Clear,0,2012-09-24 02:55:00
10:55 PM,77.5,67.3,71,30.15,10.0,Calm,Calm,-,N/A,,Clear,0,2012-09-24 03:55:00
11:55 PM,77.2,66.9,71,30.15,10.0,Calm,Calm,-,N/A,,Clear,0,2012-09-24 04:55:00